Terminal Aerodrome Forecast
Issued by NWS Memphis, TN

Home | Current Version | Previous Version | Text Only | Print | Product List | Glossary On
Versions: 1 2 3 4 5 6 7 8 9 10 11 12 13 14 15 16 17 18
725
FTUS44 KMEG 191734
TAFJBR
TAF
KJBR 191734Z 1918/2018 12006KT P6SM SCT025
      TEMPO 1918/1920 BKN015
     FM200000 12003KT P6SM SCT250
      TEMPO 2009/2013 3SM BR
     FM201500 16010KT P6SM BKN250=

USA.gov is the U.S. government's official web portal to all federal, state and local government web resources and services.